DAL9096 KFLL-KRDU
Flight info
| Callsign | DAL9096 |
|---|---|
| Flight time | 1h 51m |
| Altitude | 35000 |
| Route | AGERS1 DUCEN Q87 VIYAP Q69 GURGE PETTO DMSTR2 |
| Aircraft | A320/M-SDE3FGHIRWY/LB1 |
Departure
| Time | 2026-05-06 00:34 |
|---|---|
| Airport | Fort Lauderdale Hollywood International Airport (KFLL) |
Arrival
| Time | 2026-05-06 02:25 |
|---|---|
| Airport | Raleigh-Durham International Airport (KRDU) |
| Time | Latitude | Longitude | Altitude | Speed | Heading |
|---|---|---|---|---|---|
| 2026-05-05 23:47 | 26.07344 | -80.14256 | 13 ft | 0 kts | 270° |
| 2026-05-06 00:17 | 26.07344 | -80.14253 | 13 ft | 2 kts | 270° |
| 2026-05-06 00:17 | 26.07344 | -80.14236 | 13 ft | 2 kts | 270° |
| 2026-05-06 00:18 | 26.07342 | -80.14221 | 13 ft | 2 kts | 292° |
| 2026-05-06 00:18 | 26.07338 | -80.14211 | 13 ft | 2 kts | 304° |
| 2026-05-06 00:18 | 26.07331 | -80.14202 | 13 ft | 2 kts | 319° |
| 2026-05-06 00:18 | 26.07321 | -80.14194 | 13 ft | 2 kts | 337° |
| 2026-05-06 00:19 | 26.07307 | -80.14190 | 13 ft | 0 kts | 357° |
| 2026-05-06 00:19 | 26.07300 | -80.14190 | 13 ft | 0 kts | 0° |
| 2026-05-06 00:23 | 26.07308 | -80.14190 | 13 ft | 3 kts | 1° |
| 2026-05-06 00:23 | 26.07341 | -80.14190 | 13 ft | 6 kts | 357° |
| 2026-05-06 00:24 | 26.07396 | -80.14194 | 13 ft | 9 kts | 359° |
| 2026-05-06 00:24 | 26.07469 | -80.14177 | 13 ft | 10 kts | 39° |
| 2026-05-06 00:24 | 26.07492 | -80.14110 | 13 ft | 10 kts | 92° |
| 2026-05-06 00:24 | 26.07489 | -80.14018 | 13 ft | 10 kts | 93° |
| 2026-05-06 00:25 | 26.07519 | -80.13966 | 13 ft | 7 kts | 356° |
| 2026-05-06 00:25 | 26.07554 | -80.14014 | 13 ft | 10 kts | 276° |
| 2026-05-06 00:25 | 26.07555 | -80.14098 | 13 ft | 12 kts | 272° |
| 2026-05-06 00:25 | 26.07558 | -80.14204 | 13 ft | 14 kts | 271° |
| 2026-05-06 00:26 | 26.07557 | -80.14326 | 13 ft | 16 kts | 269° |
| 2026-05-06 00:26 | 26.07558 | -80.14464 | 13 ft | 18 kts | 271° |
| 2026-05-06 00:26 | 26.07558 | -80.14614 | 13 ft | 20 kts | 267° |
| 2026-05-06 00:26 | 26.07559 | -80.14776 | 13 ft | 21 kts | 271° |
| 2026-05-06 00:27 | 26.07562 | -80.14940 | 13 ft | 14 kts | 274° |
| 2026-05-06 00:27 | 26.07563 | -80.15036 | 13 ft | 13 kts | 266° |
| 2026-05-06 00:27 | 26.07561 | -80.15149 | 13 ft | 15 kts | 273° |
| 2026-05-06 00:27 | 26.07564 | -80.15277 | 13 ft | 17 kts | 271° |
| 2026-05-06 00:28 | 26.07565 | -80.15420 | 13 ft | 19 kts | 270° |
| 2026-05-06 00:28 | 26.07566 | -80.15558 | 13 ft | 17 kts | 270° |
| 2026-05-06 00:28 | 26.07566 | -80.15694 | 12 ft | 17 kts | 270° |
| 2026-05-06 00:28 | 26.07568 | -80.15822 | 12 ft | 16 kts | 271° |
| 2026-05-06 00:29 | 26.07568 | -80.15958 | 12 ft | 18 kts | 270° |
| 2026-05-06 00:29 | 26.07568 | -80.16104 | 12 ft | 18 kts | 271° |
| 2026-05-06 00:29 | 26.07568 | -80.16242 | 12 ft | 17 kts | 270° |
| 2026-05-06 00:29 | 26.07568 | -80.16377 | 12 ft | 17 kts | 270° |
| 2026-05-06 00:30 | 26.07569 | -80.16497 | 12 ft | 14 kts | 267° |
| 2026-05-06 00:30 | 26.07568 | -80.16599 | 12 ft | 10 kts | 274° |
| 2026-05-06 00:30 | 26.07592 | -80.16636 | 12 ft | 3 kts | 348° |
| 2026-05-06 00:30 | 26.07593 | -80.16636 | 12 ft | 0 kts | 351° |
| 2026-05-06 00:33 | 26.07599 | -80.16637 | 12 ft | 3 kts | 352° |
| 2026-05-06 00:33 | 26.07634 | -80.16641 | 12 ft | 5 kts | 358° |
| 2026-05-06 00:33 | 26.07680 | -80.16633 | 12 ft | 7 kts | 32° |
| 2026-05-06 00:33 | 26.07694 | -80.16561 | 12 ft | 19 kts | 90° |
| 2026-05-06 00:34 | 26.07698 | -80.16093 | 12 ft | 101 kts | 91° |
| 2026-05-06 00:34 | 26.07689 | -80.15035 | 47 ft | 165 kts | 89° |
| 2026-05-06 00:34 | 26.07689 | -80.13760 | 817 ft | 166 kts | 89° |
| 2026-05-06 00:34 | 26.07689 | -80.12542 | 1549 ft | 159 kts | 88° |
| 2026-05-06 00:35 | 26.07661 | -80.11290 | 2027 ft | 171 kts | 89° |
| 2026-05-06 00:35 | 26.07712 | -80.09905 | 2427 ft | 188 kts | 73° |
| 2026-05-06 00:35 | 26.08192 | -80.08499 | 2891 ft | 204 kts | 63° |
| 2026-05-06 00:35 | 26.09074 | -80.07204 | 3342 ft | 221 kts | 37° |
| 2026-05-06 00:36 | 26.10505 | -80.06437 | 3817 ft | 239 kts | 19° |
| 2026-05-06 00:36 | 26.12138 | -80.05837 | 4303 ft | 256 kts | 18° |
| 2026-05-06 00:36 | 26.13873 | -80.05182 | 4907 ft | 269 kts | 17° |
| 2026-05-06 00:36 | 26.15721 | -80.04885 | 5653 ft | 272 kts | 355° |
| 2026-05-06 00:37 | 26.17557 | -80.05331 | 6459 ft | 273 kts | 340° |
| 2026-05-06 00:37 | 26.19352 | -80.06038 | 7265 ft | 276 kts | 338° |
| 2026-05-06 00:37 | 26.21144 | -80.06809 | 8054 ft | 277 kts | 330° |
| 2026-05-06 00:37 | 26.22602 | -80.08164 | 8792 ft | 277 kts | 304° |
| 2026-05-06 00:38 | 26.23450 | -80.10077 | 9553 ft | 278 kts | 291° |
| 2026-05-06 00:38 | 26.24132 | -80.12084 | 10278 ft | 281 kts | 291° |
| 2026-05-06 00:38 | 26.24883 | -80.14130 | 10703 ft | 294 kts | 298° |
| 2026-05-06 00:38 | 26.26158 | -80.15985 | 10988 ft | 312 kts | 317° |
| 2026-05-06 00:39 | 26.28004 | -80.17370 | 11290 ft | 328 kts | 331° |
| 2026-05-06 00:39 | 26.30071 | -80.18531 | 11794 ft | 336 kts | 332° |
| 2026-05-06 00:39 | 26.32166 | -80.19694 | 12415 ft | 338 kts | 332° |
| 2026-05-06 00:39 | 26.34276 | -80.20873 | 13029 ft | 340 kts | 332° |
| 2026-05-06 00:40 | 26.36434 | -80.21976 | 13593 ft | 344 kts | 338° |
| 2026-05-06 00:40 | 26.38738 | -80.22748 | 14166 ft | 348 kts | 346° |
| 2026-05-06 00:40 | 26.41143 | -80.23164 | 14734 ft | 352 kts | 351° |
| 2026-05-06 00:40 | 26.43585 | -80.23428 | 15298 ft | 354 kts | 352° |
| 2026-05-06 00:41 | 26.46046 | -80.23673 | 15833 ft | 356 kts | 352° |
| 2026-05-06 00:41 | 26.48523 | -80.23916 | 16371 ft | 358 kts | 352° |
| 2026-05-06 00:41 | 26.51012 | -80.24168 | 16876 ft | 361 kts | 352° |
| 2026-05-06 00:41 | 26.53529 | -80.24424 | 17372 ft | 363 kts | 352° |
| 2026-05-06 00:42 | 26.56057 | -80.24699 | 17810 ft | 365 kts | 350° |
| 2026-05-06 00:42 | 26.58580 | -80.25086 | 17999 ft | 366 kts | 349° |
| 2026-05-06 00:42 | 26.61099 | -80.25505 | 18004 ft | 365 kts | 348° |
| 2026-05-06 00:42 | 26.63613 | -80.25926 | 18007 ft | 364 kts | 348° |
| 2026-05-06 00:43 | 26.66118 | -80.26346 | 18005 ft | 357 kts | 348° |
| 2026-05-06 00:43 | 26.68516 | -80.26760 | 18000 ft | 339 kts | 346° |
| 2026-05-06 00:43 | 26.70767 | -80.27315 | 18003 ft | 325 kts | 342° |
| 2026-05-06 00:43 | 26.72929 | -80.28054 | 18013 ft | 324 kts | 338° |
| 2026-05-06 00:44 | 26.75045 | -80.28919 | 18021 ft | 321 kts | 337° |
| 2026-05-06 00:44 | 26.77102 | -80.29778 | 18015 ft | 312 kts | 337° |
| 2026-05-06 00:44 | 26.79131 | -80.30628 | 18009 ft | 311 kts | 337° |
| 2026-05-06 00:44 | 26.81155 | -80.31477 | 18010 ft | 311 kts | 337° |
| 2026-05-06 00:45 | 26.83186 | -80.32329 | 18010 ft | 311 kts | 337° |
| 2026-05-06 00:45 | 26.85221 | -80.33182 | 18015 ft | 317 kts | 337° |
| 2026-05-06 00:45 | 26.87344 | -80.34074 | 18009 ft | 335 kts | 337° |
| 2026-05-06 00:45 | 26.89588 | -80.35017 | 18018 ft | 353 kts | 337° |
| 2026-05-06 00:46 | 26.91917 | -80.35993 | 18003 ft | 359 kts | 337° |
| 2026-05-06 00:46 | 26.94272 | -80.36976 | 18056 ft | 363 kts | 338° |
| 2026-05-06 00:46 | 26.96667 | -80.37947 | 18468 ft | 367 kts | 338° |
| 2026-05-06 00:46 | 26.99062 | -80.38905 | 19005 ft | 366 kts | 338° |
| 2026-05-06 00:47 | 27.01461 | -80.39867 | 19486 ft | 366 kts | 338° |
| 2026-05-06 00:47 | 27.03861 | -80.40833 | 19934 ft | 367 kts | 337° |
| 2026-05-06 00:47 | 27.06273 | -80.41806 | 20353 ft | 369 kts | 337° |
| 2026-05-06 00:47 | 27.08691 | -80.42783 | 20776 ft | 370 kts | 337° |
| 2026-05-06 00:48 | 27.11101 | -80.43799 | 21196 ft | 370 kts | 335° |
| 2026-05-06 00:48 | 27.13510 | -80.44866 | 21592 ft | 372 kts | 335° |
| 2026-05-06 00:48 | 27.15922 | -80.45940 | 21973 ft | 373 kts | 335° |
| 2026-05-06 00:48 | 27.18340 | -80.47015 | 22349 ft | 375 kts | 335° |
| 2026-05-06 00:49 | 27.20776 | -80.48096 | 22724 ft | 377 kts | 335° |
| 2026-05-06 00:49 | 27.23218 | -80.49178 | 23126 ft | 378 kts | 335° |
| 2026-05-06 00:49 | 27.25661 | -80.50258 | 23542 ft | 378 kts | 335° |
| 2026-05-06 00:49 | 27.28122 | -80.51347 | 23919 ft | 380 kts | 335° |
| 2026-05-06 00:50 | 27.30591 | -80.52442 | 24320 ft | 380 kts | 335° |
| 2026-05-06 00:50 | 27.33060 | -80.53534 | 24720 ft | 381 kts | 335° |
| 2026-05-06 00:50 | 27.35537 | -80.54630 | 25087 ft | 383 kts | 335° |
| 2026-05-06 00:50 | 27.38040 | -80.55672 | 25453 ft | 384 kts | 337° |
| 2026-05-06 00:51 | 27.40572 | -80.56681 | 25843 ft | 385 kts | 337° |
| 2026-05-06 00:51 | 27.43100 | -80.57681 | 26225 ft | 385 kts | 337° |
| 2026-05-06 00:51 | 27.45637 | -80.58686 | 26571 ft | 386 kts | 337° |
| 2026-05-06 00:51 | 27.48174 | -80.59696 | 26919 ft | 387 kts | 337° |
| 2026-05-06 00:52 | 27.50721 | -80.60709 | 27274 ft | 388 kts | 337° |
| 2026-05-06 00:52 | 27.53272 | -80.61724 | 27534 ft | 391 kts | 337° |
| 2026-05-06 00:52 | 27.55861 | -80.62755 | 27663 ft | 396 kts | 337° |
| 2026-05-06 00:52 | 27.58471 | -80.63795 | 27911 ft | 399 kts | 337° |
| 2026-05-06 00:53 | 27.61100 | -80.64841 | 28225 ft | 399 kts | 338° |
| 2026-05-06 00:53 | 27.63736 | -80.65891 | 28535 ft | 400 kts | 337° |
| 2026-05-06 00:53 | 27.66371 | -80.66944 | 28846 ft | 401 kts | 337° |
| 2026-05-06 00:53 | 27.69002 | -80.67992 | 29212 ft | 400 kts | 337° |
| 2026-05-06 00:54 | 27.71593 | -80.69024 | 29936 ft | 390 kts | 336° |
| 2026-05-06 00:54 | 27.74138 | -80.70036 | 30533 ft | 384 kts | 337° |
| 2026-05-06 00:54 | 27.76634 | -80.71034 | 31146 ft | 377 kts | 336° |
| 2026-05-06 00:54 | 27.79086 | -80.72011 | 31672 ft | 372 kts | 336° |
| 2026-05-06 00:55 | 27.81521 | -80.72987 | 31957 ft | 372 kts | 336° |
| 2026-05-06 00:55 | 27.83972 | -80.73972 | 32184 ft | 374 kts | 336° |
| 2026-05-06 00:55 | 27.86439 | -80.74960 | 32434 ft | 375 kts | 336° |
| 2026-05-06 00:55 | 27.88899 | -80.75947 | 32693 ft | 375 kts | 336° |
| 2026-05-06 00:56 | 27.91378 | -80.76941 | 32915 ft | 376 kts | 336° |
| 2026-05-06 00:56 | 27.93852 | -80.77933 | 33178 ft | 376 kts | 336° |
| 2026-05-06 00:56 | 27.96322 | -80.78922 | 33419 ft | 377 kts | 336° |
| 2026-05-06 00:56 | 27.98793 | -80.79916 | 33636 ft | 378 kts | 336° |
| 2026-05-06 00:57 | 28.01268 | -80.80911 | 33861 ft | 378 kts | 336° |
| 2026-05-06 00:57 | 28.03753 | -80.81908 | 34044 ft | 379 kts | 336° |
| 2026-05-06 00:57 | 28.06241 | -80.82908 | 34205 ft | 380 kts | 336° |
| 2026-05-06 00:57 | 28.08735 | -80.83910 | 34363 ft | 381 kts | 336° |
| 2026-05-06 00:58 | 28.11244 | -80.84922 | 34514 ft | 382 kts | 336° |
| 2026-05-06 00:58 | 28.13762 | -80.85936 | 34672 ft | 384 kts | 336° |
| 2026-05-06 00:58 | 28.16281 | -80.86952 | 34838 ft | 384 kts | 336° |
| 2026-05-06 00:58 | 28.18803 | -80.87965 | 34984 ft | 385 kts | 336° |
| 2026-05-06 00:59 | 28.21336 | -80.88987 | 35063 ft | 386 kts | 336° |
| 2026-05-06 00:59 | 28.26381 | -80.91025 | 35069 ft | 384 kts | 336° |
| 2026-05-06 01:00 | 28.31435 | -80.93065 | 35071 ft | 386 kts | 335° |
| 2026-05-06 01:00 | 28.36487 | -80.95109 | 35073 ft | 385 kts | 336° |
| 2026-05-06 01:01 | 28.41539 | -80.97156 | 35073 ft | 384 kts | 335° |
| 2026-05-06 01:01 | 28.46576 | -80.99196 | 35074 ft | 385 kts | 336° |
| 2026-05-06 01:02 | 28.51627 | -81.01241 | 35073 ft | 385 kts | 335° |
| 2026-05-06 01:02 | 28.56679 | -81.03296 | 35074 ft | 386 kts | 335° |
| 2026-05-06 01:03 | 28.61740 | -81.05353 | 35074 ft | 385 kts | 336° |
| 2026-05-06 01:03 | 28.66780 | -81.07402 | 35072 ft | 385 kts | 335° |
| 2026-05-06 01:04 | 28.71857 | -81.09473 | 35074 ft | 390 kts | 335° |
| 2026-05-06 01:04 | 28.77012 | -81.11571 | 35074 ft | 396 kts | 335° |
| 2026-05-06 01:05 | 28.82225 | -81.13701 | 35071 ft | 398 kts | 335° |
| 2026-05-06 01:05 | 28.87442 | -81.15830 | 35070 ft | 398 kts | 336° |
| 2026-05-06 01:06 | 28.92661 | -81.17964 | 35071 ft | 398 kts | 335° |
| 2026-05-06 01:06 | 28.97884 | -81.20104 | 35072 ft | 398 kts | 335° |
| 2026-05-06 01:07 | 29.03093 | -81.22236 | 35067 ft | 393 kts | 335° |
| 2026-05-06 01:07 | 29.08165 | -81.24313 | 35073 ft | 384 kts | 335° |
| 2026-05-06 01:08 | 29.13196 | -81.26386 | 35074 ft | 383 kts | 335° |
| 2026-05-06 01:08 | 29.18230 | -81.28456 | 35073 ft | 384 kts | 335° |
| 2026-05-06 01:09 | 29.23328 | -81.30352 | 35072 ft | 387 kts | 339° |
| 2026-05-06 01:09 | 29.28598 | -81.31749 | 35071 ft | 390 kts | 343° |
| 2026-05-06 01:10 | 29.34020 | -81.32606 | 35071 ft | 394 kts | 348° |
| 2026-05-06 01:10 | 29.39513 | -81.33012 | 35072 ft | 396 kts | 349° |
| 2026-05-06 01:11 | 29.45010 | -81.33348 | 35071 ft | 395 kts | 349° |
| 2026-05-06 01:11 | 29.50527 | -81.33675 | 35070 ft | 395 kts | 349° |
| 2026-05-06 01:12 | 29.56032 | -81.34004 | 35067 ft | 394 kts | 349° |
| 2026-05-06 01:12 | 29.61517 | -81.34327 | 35066 ft | 395 kts | 349° |
| 2026-05-06 01:13 | 29.67008 | -81.34654 | 35066 ft | 395 kts | 349° |
| 2026-05-06 01:13 | 29.72513 | -81.34977 | 35067 ft | 395 kts | 349° |
| 2026-05-06 01:14 | 29.80767 | -81.35468 | 35070 ft | 394 kts | 349° |
| 2026-05-06 01:14 | 29.86275 | -81.35795 | 35071 ft | 395 kts | 349° |
| 2026-05-06 01:15 | 29.91790 | -81.36121 | 35074 ft | 395 kts | 349° |
| 2026-05-06 01:15 | 29.97309 | -81.36448 | 35077 ft | 395 kts | 349° |
| 2026-05-06 01:16 | 30.02802 | -81.36774 | 35077 ft | 393 kts | 349° |
| 2026-05-06 01:16 | 30.08277 | -81.37103 | 35077 ft | 393 kts | 349° |
| 2026-05-06 01:17 | 30.13763 | -81.37428 | 35077 ft | 394 kts | 349° |
| 2026-05-06 01:17 | 30.19236 | -81.37755 | 35076 ft | 393 kts | 349° |
| 2026-05-06 01:18 | 30.24709 | -81.38084 | 35076 ft | 394 kts | 349° |
| 2026-05-06 01:18 | 30.30181 | -81.38410 | 35075 ft | 394 kts | 349° |
| 2026-05-06 01:19 | 30.35688 | -81.38742 | 35075 ft | 393 kts | 349° |
| 2026-05-06 01:19 | 30.41173 | -81.39072 | 35076 ft | 393 kts | 349° |
| 2026-05-06 01:20 | 30.46659 | -81.39397 | 35077 ft | 394 kts | 349° |
| 2026-05-06 01:20 | 30.52128 | -81.39689 | 35078 ft | 393 kts | 349° |
| 2026-05-06 01:21 | 30.57590 | -81.39975 | 35079 ft | 392 kts | 349° |
| 2026-05-06 01:21 | 30.63063 | -81.40263 | 35081 ft | 394 kts | 349° |
| 2026-05-06 01:22 | 30.68542 | -81.40554 | 35081 ft | 393 kts | 349° |
| 2026-05-06 01:22 | 30.74014 | -81.40843 | 35082 ft | 394 kts | 349° |
| 2026-05-06 01:23 | 30.79389 | -81.41126 | 35081 ft | 395 kts | 349° |
| 2026-05-06 01:23 | 30.84870 | -81.41420 | 35079 ft | 394 kts | 349° |
| 2026-05-06 01:24 | 30.90356 | -81.41711 | 35079 ft | 395 kts | 349° |
| 2026-05-06 01:24 | 30.95851 | -81.42004 | 35077 ft | 394 kts | 349° |
| 2026-05-06 01:25 | 30.98599 | -81.42151 | 35079 ft | 393 kts | 349° |
| 2026-05-06 01:25 | 31.04979 | -81.42492 | 35080 ft | 393 kts | 349° |
| 2026-05-06 01:26 | 31.12357 | -81.42886 | 35082 ft | 393 kts | 349° |
| 2026-05-06 01:26 | 31.17860 | -81.43180 | 35082 ft | 393 kts | 349° |
| 2026-05-06 01:27 | 31.23342 | -81.43472 | 35082 ft | 395 kts | 349° |
| 2026-05-06 01:27 | 31.28846 | -81.43620 | 35085 ft | 396 kts | 351° |
| 2026-05-06 01:28 | 31.34358 | -81.43683 | 35083 ft | 396 kts | 351° |
| 2026-05-06 01:28 | 31.39884 | -81.43665 | 35085 ft | 399 kts | 353° |
| 2026-05-06 01:29 | 31.45444 | -81.43112 | 35084 ft | 404 kts | 358° |
| 2026-05-06 01:29 | 31.51028 | -81.41941 | 35081 ft | 411 kts | 3° |
| 2026-05-06 01:30 | 31.56585 | -81.40120 | 35083 ft | 419 kts | 8° |
| 2026-05-06 01:30 | 31.62099 | -81.37891 | 35083 ft | 419 kts | 8° |
| 2026-05-06 01:31 | 31.67594 | -81.35632 | 35079 ft | 419 kts | 9° |
| 2026-05-06 01:31 | 31.73109 | -81.33361 | 35083 ft | 419 kts | 9° |
| 2026-05-06 01:32 | 31.78599 | -81.31094 | 35083 ft | 420 kts | 9° |
| 2026-05-06 01:32 | 31.84123 | -81.28816 | 35081 ft | 419 kts | 9° |
| 2026-05-06 01:33 | 31.89662 | -81.26560 | 35081 ft | 419 kts | 7° |
| 2026-05-06 01:33 | 31.95247 | -81.24823 | 35083 ft | 410 kts | 2° |
| 2026-05-06 01:34 | 32.00851 | -81.23743 | 35081 ft | 403 kts | 357° |
| 2026-05-06 01:34 | 32.06434 | -81.23268 | 35080 ft | 400 kts | 354° |
| 2026-05-06 01:35 | 32.12034 | -81.22979 | 35083 ft | 401 kts | 354° |
| 2026-05-06 01:35 | 32.17625 | -81.22698 | 35082 ft | 400 kts | 354° |
| 2026-05-06 01:36 | 32.23198 | -81.22423 | 35081 ft | 400 kts | 354° |
| 2026-05-06 01:36 | 32.28776 | -81.22147 | 35078 ft | 401 kts | 354° |
| 2026-05-06 01:37 | 32.34354 | -81.21869 | 35083 ft | 399 kts | 354° |
| 2026-05-06 01:37 | 32.39926 | -81.21590 | 35081 ft | 401 kts | 354° |
| 2026-05-06 01:38 | 32.45507 | -81.21310 | 35074 ft | 401 kts | 354° |
| 2026-05-06 01:38 | 32.51121 | -81.20738 | 35076 ft | 406 kts | 358° |
| 2026-05-06 01:39 | 32.56735 | -81.19881 | 35074 ft | 406 kts | 358° |
| 2026-05-06 01:39 | 32.62364 | -81.19005 | 35070 ft | 408 kts | 359° |
| 2026-05-06 01:40 | 32.68009 | -81.18126 | 35075 ft | 408 kts | 359° |
| 2026-05-06 01:40 | 32.73662 | -81.17247 | 35067 ft | 410 kts | 358° |
| 2026-05-06 01:41 | 32.79327 | -81.16362 | 35069 ft | 409 kts | 359° |
| 2026-05-06 01:41 | 32.84972 | -81.15480 | 35074 ft | 409 kts | 359° |
| 2026-05-06 01:42 | 32.90605 | -81.14597 | 35072 ft | 409 kts | 358° |
| 2026-05-06 01:42 | 32.96265 | -81.13680 | 35083 ft | 412 kts | 0° |
| 2026-05-06 01:43 | 33.01928 | -81.12150 | 35086 ft | 421 kts | 7° |
| 2026-05-06 01:43 | 33.07487 | -81.09773 | 35087 ft | 430 kts | 13° |
| 2026-05-06 01:44 | 33.12896 | -81.06517 | 35086 ft | 440 kts | 20° |
| 2026-05-06 01:44 | 33.18120 | -81.02653 | 35086 ft | 443 kts | 22° |
| 2026-05-06 01:45 | 33.23314 | -80.98732 | 35086 ft | 442 kts | 21° |
| 2026-05-06 01:45 | 33.28515 | -80.94805 | 35081 ft | 443 kts | 21° |
| 2026-05-06 01:46 | 33.33723 | -80.90869 | 35077 ft | 442 kts | 21° |
| 2026-05-06 01:46 | 33.38915 | -80.86942 | 34975 ft | 442 kts | 22° |
| 2026-05-06 01:47 | 33.41514 | -80.84975 | 34693 ft | 441 kts | 22° |
| 2026-05-06 01:47 | 33.44093 | -80.83017 | 34414 ft | 437 kts | 22° |
| 2026-05-06 01:47 | 33.46650 | -80.81074 | 34131 ft | 435 kts | 22° |
| 2026-05-06 01:47 | 33.49195 | -80.79141 | 33847 ft | 432 kts | 22° |
| 2026-05-06 01:48 | 33.51735 | -80.77215 | 33572 ft | 433 kts | 22° |
| 2026-05-06 01:48 | 33.54278 | -80.75284 | 33291 ft | 434 kts | 22° |
| 2026-05-06 01:48 | 33.56828 | -80.73349 | 33040 ft | 435 kts | 22° |
| 2026-05-06 01:48 | 33.59386 | -80.71402 | 32797 ft | 436 kts | 22° |
| 2026-05-06 01:49 | 33.61950 | -80.69454 | 32553 ft | 437 kts | 22° |
| 2026-05-06 01:49 | 33.64518 | -80.67496 | 32308 ft | 438 kts | 22° |
| 2026-05-06 01:49 | 33.67094 | -80.65532 | 32059 ft | 438 kts | 22° |
| 2026-05-06 01:49 | 33.69659 | -80.63572 | 31930 ft | 439 kts | 23° |
| 2026-05-06 01:50 | 33.72232 | -80.61609 | 31686 ft | 440 kts | 23° |
| 2026-05-06 01:50 | 33.74813 | -80.59636 | 31443 ft | 441 kts | 23° |
| 2026-05-06 01:50 | 33.77399 | -80.57659 | 31199 ft | 442 kts | 23° |
| 2026-05-06 01:50 | 33.79992 | -80.55674 | 31069 ft | 443 kts | 23° |
| 2026-05-06 01:51 | 33.85195 | -80.51686 | 31066 ft | 444 kts | 23° |
| 2026-05-06 01:51 | 33.90419 | -80.47674 | 31069 ft | 446 kts | 24° |
| 2026-05-06 01:52 | 33.95643 | -80.43659 | 31070 ft | 445 kts | 24° |
| 2026-05-06 01:52 | 34.00837 | -80.39654 | 30827 ft | 440 kts | 23° |
| 2026-05-06 01:53 | 34.03237 | -80.37804 | 30227 ft | 438 kts | 24° |
| 2026-05-06 01:53 | 34.05781 | -80.35842 | 29770 ft | 431 kts | 24° |
| 2026-05-06 01:53 | 34.08291 | -80.33903 | 29247 ft | 427 kts | 24° |
| 2026-05-06 01:53 | 34.10787 | -80.31978 | 28610 ft | 424 kts | 25° |
| 2026-05-06 01:54 | 34.13268 | -80.30062 | 28003 ft | 421 kts | 25° |
| 2026-05-06 01:54 | 34.15725 | -80.28165 | 27371 ft | 419 kts | 25° |
| 2026-05-06 01:54 | 34.18165 | -80.26276 | 26764 ft | 416 kts | 25° |
| 2026-05-06 01:54 | 34.20592 | -80.24396 | 26175 ft | 413 kts | 25° |
| 2026-05-06 01:55 | 34.22999 | -80.22531 | 25594 ft | 410 kts | 26° |
| 2026-05-06 01:55 | 34.25388 | -80.20680 | 24991 ft | 408 kts | 26° |
| 2026-05-06 01:55 | 34.27764 | -80.18836 | 24413 ft | 405 kts | 26° |
| 2026-05-06 01:55 | 34.30121 | -80.17006 | 23859 ft | 402 kts | 26° |
| 2026-05-06 01:56 | 34.32467 | -80.15183 | 23285 ft | 399 kts | 26° |
| 2026-05-06 01:56 | 34.34789 | -80.13378 | 22721 ft | 397 kts | 26° |
| 2026-05-06 01:56 | 34.37107 | -80.11573 | 22189 ft | 395 kts | 27° |
| 2026-05-06 01:56 | 34.39409 | -80.09783 | 21658 ft | 392 kts | 27° |
| 2026-05-06 01:57 | 34.41692 | -80.08004 | 21217 ft | 388 kts | 27° |
| 2026-05-06 01:57 | 34.43958 | -80.06236 | 21070 ft | 388 kts | 27° |
| 2026-05-06 01:57 | 34.46233 | -80.04460 | 21070 ft | 390 kts | 27° |
| 2026-05-06 01:57 | 34.48512 | -80.02681 | 21066 ft | 390 kts | 27° |
| 2026-05-06 01:58 | 34.50793 | -80.00897 | 21066 ft | 390 kts | 27° |
| 2026-05-06 01:58 | 34.53079 | -79.99109 | 21062 ft | 390 kts | 27° |
| 2026-05-06 01:58 | 34.55357 | -79.97327 | 21066 ft | 390 kts | 27° |
| 2026-05-06 01:58 | 34.57638 | -79.95541 | 21065 ft | 391 kts | 27° |
| 2026-05-06 01:59 | 34.59928 | -79.93748 | 21064 ft | 391 kts | 27° |
| 2026-05-06 01:59 | 34.62210 | -79.91958 | 21063 ft | 391 kts | 27° |
| 2026-05-06 01:59 | 34.64497 | -79.90162 | 21064 ft | 391 kts | 27° |
| 2026-05-06 01:59 | 34.66782 | -79.88370 | 21061 ft | 391 kts | 27° |
| 2026-05-06 02:00 | 34.69045 | -79.86528 | 21063 ft | 392 kts | 30° |
| 2026-05-06 02:00 | 34.71262 | -79.84599 | 21064 ft | 392 kts | 30° |
| 2026-05-06 02:00 | 34.73470 | -79.82654 | 21067 ft | 393 kts | 30° |
| 2026-05-06 02:00 | 34.75685 | -79.80698 | 21060 ft | 393 kts | 30° |
| 2026-05-06 02:01 | 34.77898 | -79.78744 | 21007 ft | 394 kts | 31° |
| 2026-05-06 02:01 | 34.80103 | -79.76795 | 20769 ft | 392 kts | 31° |
| 2026-05-06 02:01 | 34.82305 | -79.74849 | 20528 ft | 391 kts | 31° |
| 2026-05-06 02:01 | 34.84499 | -79.72910 | 20288 ft | 390 kts | 31° |
| 2026-05-06 02:02 | 34.86687 | -79.70973 | 20047 ft | 388 kts | 31° |
| 2026-05-06 02:02 | 34.88864 | -79.69044 | 19815 ft | 387 kts | 31° |
| 2026-05-06 02:02 | 34.91030 | -79.67125 | 19566 ft | 385 kts | 31° |
| 2026-05-06 02:02 | 34.93189 | -79.65210 | 19326 ft | 383 kts | 31° |
| 2026-05-06 02:03 | 34.95282 | -79.63351 | 19088 ft | 381 kts | 31° |
| 2026-05-06 02:03 | 34.97414 | -79.61459 | 18849 ft | 381 kts | 31° |
| 2026-05-06 02:03 | 34.99558 | -79.59555 | 18603 ft | 379 kts | 32° |
| 2026-05-06 02:03 | 35.01683 | -79.57663 | 18361 ft | 377 kts | 32° |
| 2026-05-06 02:04 | 35.03798 | -79.55781 | 18115 ft | 376 kts | 32° |
| 2026-05-06 02:04 | 35.05909 | -79.53902 | 17870 ft | 375 kts | 32° |
| 2026-05-06 02:04 | 35.08014 | -79.52027 | 17625 ft | 374 kts | 32° |
| 2026-05-06 02:04 | 35.10218 | -79.50366 | 17377 ft | 369 kts | 22° |
| 2026-05-06 02:05 | 35.12600 | -79.49187 | 17134 ft | 364 kts | 13° |
| 2026-05-06 02:05 | 35.15058 | -79.48513 | 16889 ft | 359 kts | 4° |
| 2026-05-06 02:05 | 35.17527 | -79.48148 | 16651 ft | 356 kts | 2° |
| 2026-05-06 02:05 | 35.19988 | -79.47839 | 16409 ft | 355 kts | 1° |
| 2026-05-06 02:06 | 35.22448 | -79.47533 | 16167 ft | 354 kts | 1° |
| 2026-05-06 02:06 | 35.24898 | -79.47216 | 15937 ft | 353 kts | 2° |
| 2026-05-06 02:06 | 35.27336 | -79.46894 | 15686 ft | 353 kts | 2° |
| 2026-05-06 02:06 | 35.29772 | -79.46567 | 15477 ft | 351 kts | 2° |
| 2026-05-06 02:07 | 35.32213 | -79.46230 | 15255 ft | 351 kts | 4° |
| 2026-05-06 02:07 | 35.34603 | -79.45494 | 15014 ft | 357 kts | 17° |
| 2026-05-06 02:07 | 35.36842 | -79.44136 | 14772 ft | 361 kts | 29° |
| 2026-05-06 02:07 | 35.38861 | -79.42295 | 14537 ft | 363 kts | 36° |
| 2026-05-06 02:08 | 35.40807 | -79.40322 | 14309 ft | 362 kts | 37° |
| 2026-05-06 02:08 | 35.42717 | -79.38356 | 14008 ft | 356 kts | 37° |
| 2026-05-06 02:08 | 35.44600 | -79.36425 | 13700 ft | 349 kts | 36° |
| 2026-05-06 02:08 | 35.46442 | -79.34545 | 13422 ft | 333 kts | 37° |
| 2026-05-06 02:09 | 35.48184 | -79.32773 | 13166 ft | 316 kts | 37° |
| 2026-05-06 02:09 | 35.49874 | -79.31062 | 12920 ft | 314 kts | 36° |
| 2026-05-06 02:09 | 35.51558 | -79.29364 | 12681 ft | 313 kts | 37° |
| 2026-05-06 02:09 | 35.53238 | -79.27669 | 12428 ft | 313 kts | 37° |
| 2026-05-06 02:10 | 35.54917 | -79.25972 | 12179 ft | 312 kts | 37° |
| 2026-05-06 02:10 | 35.56588 | -79.24280 | 11908 ft | 311 kts | 37° |
| 2026-05-06 02:10 | 35.58251 | -79.22596 | 11679 ft | 310 kts | 37° |
| 2026-05-06 02:10 | 35.59907 | -79.20918 | 11419 ft | 309 kts | 37° |
| 2026-05-06 02:11 | 35.61561 | -79.19235 | 11172 ft | 308 kts | 39° |
| 2026-05-06 02:11 | 35.63122 | -79.17427 | 10987 ft | 308 kts | 45° |
| 2026-05-06 02:11 | 35.64520 | -79.15447 | 10746 ft | 305 kts | 51° |
| 2026-05-06 02:11 | 35.65782 | -79.13376 | 10474 ft | 300 kts | 53° |
| 2026-05-06 02:12 | 35.66998 | -79.11320 | 10200 ft | 296 kts | 53° |
| 2026-05-06 02:12 | 35.68192 | -79.09297 | 9968 ft | 290 kts | 53° |
| 2026-05-06 02:12 | 35.69357 | -79.07331 | 9835 ft | 279 kts | 53° |
| 2026-05-06 02:12 | 35.70492 | -79.05422 | 9754 ft | 275 kts | 53° |
| 2026-05-06 02:13 | 35.71621 | -79.03526 | 9690 ft | 275 kts | 53° |
| 2026-05-06 02:13 | 35.72747 | -79.01634 | 9555 ft | 274 kts | 53° |
| 2026-05-06 02:13 | 35.73873 | -78.99741 | 9368 ft | 275 kts | 53° |
| 2026-05-06 02:13 | 35.74998 | -78.97851 | 9159 ft | 274 kts | 53° |
| 2026-05-06 02:14 | 35.76122 | -78.95965 | 8953 ft | 273 kts | 53° |
| 2026-05-06 02:14 | 35.77246 | -78.94079 | 8760 ft | 273 kts | 53° |
| 2026-05-06 02:14 | 35.78346 | -78.92193 | 8559 ft | 269 kts | 59° |
| 2026-05-06 02:14 | 35.79128 | -78.90131 | 8320 ft | 264 kts | 75° |
| 2026-05-06 02:15 | 35.79483 | -78.87952 | 8091 ft | 259 kts | 85° |
| 2026-05-06 02:15 | 35.79679 | -78.85765 | 7854 ft | 256 kts | 88° |
| 2026-05-06 02:15 | 35.79848 | -78.83605 | 7594 ft | 252 kts | 87° |
| 2026-05-06 02:15 | 35.80028 | -78.81465 | 7412 ft | 252 kts | 87° |
| 2026-05-06 02:16 | 35.80222 | -78.79320 | 7293 ft | 252 kts | 86° |
| 2026-05-06 02:16 | 35.80426 | -78.77171 | 7201 ft | 252 kts | 86° |
| 2026-05-06 02:16 | 35.80633 | -78.75032 | 7110 ft | 251 kts | 86° |
| 2026-05-06 02:16 | 35.80866 | -78.72931 | 7004 ft | 244 kts | 78° |
| 2026-05-06 02:17 | 35.81567 | -78.71093 | 6991 ft | 235 kts | 51° |
| 2026-05-06 02:17 | 35.82684 | -78.69631 | 6993 ft | 233 kts | 43° |
| 2026-05-06 02:17 | 35.83853 | -78.68268 | 6769 ft | 232 kts | 42° |
| 2026-05-06 02:17 | 35.85020 | -78.66907 | 6572 ft | 228 kts | 43° |
| 2026-05-06 02:18 | 35.86148 | -78.65573 | 6415 ft | 221 kts | 43° |
| 2026-05-06 02:18 | 35.87239 | -78.64269 | 6208 ft | 217 kts | 44° |
| 2026-05-06 02:18 | 35.88320 | -78.62967 | 5939 ft | 217 kts | 44° |
| 2026-05-06 02:18 | 35.89397 | -78.61663 | 5716 ft | 214 kts | 45° |
| 2026-05-06 02:19 | 35.90438 | -78.60398 | 5487 ft | 211 kts | 45° |
| 2026-05-06 02:19 | 35.91493 | -78.59112 | 5071 ft | 216 kts | 44° |
| 2026-05-06 02:19 | 35.92728 | -78.58105 | 4716 ft | 213 kts | 12° |
| 2026-05-06 02:19 | 35.94090 | -78.58317 | 4436 ft | 191 kts | 322° |
| 2026-05-06 02:20 | 35.94966 | -78.60952 | 3760 ft | 171 kts | 277° |
| 2026-05-06 02:20 | 35.95599 | -78.62241 | 3392 ft | 182 kts | 303° |
| 2026-05-06 02:20 | 35.96459 | -78.63367 | 3058 ft | 180 kts | 306° |
| 2026-05-06 02:21 | 35.97311 | -78.64508 | 2997 ft | 180 kts | 299° |
| 2026-05-06 02:21 | 35.97627 | -78.65875 | 2963 ft | 161 kts | 251° |
| 2026-05-06 02:21 | 35.97067 | -78.66940 | 2839 ft | 140 kts | 220° |
| 2026-05-06 02:21 | 35.96357 | -78.67696 | 2648 ft | 132 kts | 217° |
| 2026-05-06 02:22 | 35.95668 | -78.68438 | 2484 ft | 131 kts | 218° |
| 2026-05-06 02:22 | 35.95016 | -78.69229 | 2314 ft | 132 kts | 220° |
| 2026-05-06 02:22 | 35.94364 | -78.70015 | 2146 ft | 131 kts | 219° |
| 2026-05-06 02:22 | 35.93713 | -78.70788 | 1996 ft | 128 kts | 219° |
| 2026-05-06 02:23 | 35.93078 | -78.71560 | 1832 ft | 128 kts | 219° |
| 2026-05-06 02:23 | 35.92450 | -78.72339 | 1682 ft | 126 kts | 218° |
| 2026-05-06 02:23 | 35.91855 | -78.73087 | 1521 ft | 123 kts | 219° |
| 2026-05-06 02:23 | 35.91237 | -78.73850 | 1363 ft | 129 kts | 219° |
| 2026-05-06 02:24 | 35.90582 | -78.74624 | 1223 ft | 127 kts | 220° |
| 2026-05-06 02:24 | 35.89977 | -78.75399 | 1043 ft | 125 kts | 220° |
| 2026-05-06 02:24 | 35.89370 | -78.76135 | 832 ft | 120 kts | 220° |
| 2026-05-06 02:24 | 35.88772 | -78.76869 | 694 ft | 119 kts | 220° |
| 2026-05-06 02:25 | 35.88204 | -78.77586 | 517 ft | 115 kts | 220° |
| 2026-05-06 02:25 | 35.87652 | -78.78258 | 429 ft | 109 kts | 219° |
| 2026-05-06 02:25 | 35.87181 | -78.78834 | 421 ft | 58 kts | 227° |
| 2026-05-06 02:25 | 35.87056 | -78.79005 | 415 ft | 19 kts | 227° |
| 2026-05-06 02:26 | 35.87027 | -78.79072 | 413 ft | 4 kts | 284° |
| 2026-05-06 02:26 | 35.87033 | -78.79087 | 413 ft | 0 kts | 298° |
| 2026-05-06 02:27 | 35.87033 | -78.79088 | 413 ft | 0 kts | 298° |
| 2026-05-06 02:27 | 35.87045 | -78.79109 | 412 ft | 5 kts | 307° |
| 2026-05-06 02:28 | 35.87084 | -78.79140 | 411 ft | 8 kts | 2° |
| 2026-05-06 02:28 | 35.87135 | -78.79097 | 413 ft | 8 kts | 44° |
| 2026-05-06 02:28 | 35.87174 | -78.79049 | 415 ft | 7 kts | 45° |
| 2026-05-06 02:28 | 35.87211 | -78.79003 | 417 ft | 7 kts | 44° |
| 2026-05-06 02:29 | 35.87250 | -78.78957 | 418 ft | 7 kts | 44° |
| 2026-05-06 02:29 | 35.87291 | -78.78908 | 420 ft | 8 kts | 44° |
| 2026-05-06 02:29 | 35.87335 | -78.78854 | 421 ft | 9 kts | 45° |
| 2026-05-06 02:29 | 35.87382 | -78.78795 | 423 ft | 10 kts | 46° |
| 2026-05-06 02:30 | 35.87432 | -78.78729 | 424 ft | 11 kts | 47° |
| 2026-05-06 02:30 | 35.87491 | -78.78659 | 425 ft | 12 kts | 45° |
| 2026-05-06 02:30 | 35.87549 | -78.78585 | 426 ft | 10 kts | 45° |
| 2026-05-06 02:30 | 35.87599 | -78.78523 | 426 ft | 10 kts | 38° |
| 2026-05-06 02:31 | 35.87668 | -78.78542 | 426 ft | 12 kts | 315° |
| 2026-05-06 02:31 | 35.87729 | -78.78615 | 423 ft | 13 kts | 315° |
| 2026-05-06 02:31 | 35.87798 | -78.78697 | 419 ft | 13 kts | 316° |
| 2026-05-06 02:31 | 35.87878 | -78.78762 | 417 ft | 9 kts | 339° |
| 2026-05-06 02:32 | 35.87947 | -78.78787 | 414 ft | 12 kts | 336° |
| 2026-05-06 02:32 | 35.88014 | -78.78850 | 409 ft | 10 kts | 317° |
| 2026-05-06 02:32 | 35.88070 | -78.78920 | 405 ft | 14 kts | 313° |
| 2026-05-06 02:32 | 35.88133 | -78.79012 | 401 ft | 10 kts | 285° |
| 2026-05-06 02:33 | 35.88101 | -78.79091 | 399 ft | 8 kts | 224° |
| 2026-05-06 02:33 | 35.88072 | -78.79128 | 398 ft | 10 kts | 228° |
| 2026-05-06 02:34 | 35.87925 | -78.79306 | 393 ft | 13 kts | 229° |
| 2026-05-06 02:34 | 35.87864 | -78.79386 | 391 ft | 10 kts | 223° |
| 2026-05-06 02:34 | 35.87811 | -78.79453 | 390 ft | 5 kts | 226° |
| 2026-05-06 02:34 | 35.87797 | -78.79468 | 389 ft | 2 kts | 211° |
| 2026-05-06 02:35 | 35.87770 | -78.79477 | 389 ft | 4 kts | 189° |
| 2026-05-06 02:35 | 35.87752 | -78.79471 | 389 ft | 1 kts | 143° |
| 2026-05-06 02:35 | 35.87744 | -78.79462 | 389 ft | 1 kts | 136° |
| 2026-05-06 02:35 | 35.87733 | -78.79449 | 390 ft | 2 kts | 134° |
| 2026-05-06 02:36 | 35.87730 | -78.79444 | 390 ft | 0 kts | 135° |